createdAt,value
2017-03-14T00:00:44.702Z,0
2017-03-14T00:01:44.331Z,0
2017-03-14T00:02:45.147Z,0
2017-03-14T00:03:45.183Z,0
2017-03-14T00:04:45.462Z,0
2017-03-14T00:05:44.450Z,0
2017-03-14T00:06:44.472Z,0
2017-03-14T00:07:44.495Z,0
2017-03-14T00:08:44.920Z,0
2017-03-14T00:09:45.208Z,0
2017-03-14T00:10:44.186Z,0
2017-03-14T00:11:45.414Z,0
2017-03-14T00:12:45.044Z,0
2017-03-14T00:13:45.071Z,0
2017-03-14T00:14:44.937Z,0
2017-03-14T00:15:45.517Z,0
2017-03-14T00:16:45.543Z,0
2017-03-14T00:17:44.780Z,0
2017-03-14T00:18:45.204Z,0
2017-03-14T00:19:44.696Z,0
2017-03-14T00:20:45.256Z,0
2017-03-14T00:21:45.286Z,0
2017-03-14T00:22:44.924Z,0
2017-03-14T00:23:45.354Z,0
2017-03-14T00:24:45.635Z,0
2017-03-14T00:25:45.392Z,0
2017-03-14T00:26:45.422Z,0
2017-03-14T00:27:45.055Z,0
2017-03-14T00:28:45.882Z,0
2017-03-14T00:29:45.772Z,0
2017-03-14T00:30:45.933Z,0
2017-03-14T00:31:45.566Z,0
2017-03-14T00:32:44.802Z,0
2017-03-14T00:33:45.627Z,0
2017-03-14T00:34:46.291Z,0
2017-03-14T00:35:44.884Z,0
2017-03-14T00:36:45.306Z,0
2017-03-14T00:37:45.738Z,0
2017-03-14T00:38:45.367Z,0
2017-03-14T00:39:46.436Z,0
2017-03-14T00:40:45.424Z,0
2017-03-14T00:41:45.448Z,0
2017-03-14T00:42:46.270Z,0
2017-03-14T00:43:45.905Z,0
2017-03-14T00:44:46.594Z,0
2017-03-14T00:45:45.948Z,0
2017-03-14T00:46:45.582Z,0
2017-03-14T00:47:46.396Z,0
2017-03-14T00:48:45.650Z,0
2017-03-14T00:49:45.922Z,0
2017-03-14T00:50:45.300Z,0
2017-03-14T00:51:45.724Z,0
2017-03-14T00:52:45.761Z,0
2017-03-14T00:53:45.393Z,0
2017-03-14T00:54:46.071Z,0
2017-03-14T00:55:46.240Z,0
2017-03-14T00:56:46.649Z,0
2017-03-14T00:57:46.690Z,0
2017-03-14T00:58:46.710Z,0
2017-03-14T00:59:46.987Z,0
2017-03-14T01:00:45.980Z,0
2017-03-14T01:01:46.004Z,0
2017-03-14T01:02:46.441Z,0
2017-03-14T01:03:46.450Z,0
2017-03-14T01:04:46.337Z,0
2017-03-14T01:05:46.115Z,0
2017-03-14T01:06:46.147Z,0
2017-03-14T01:07:46.961Z,0
2017-03-14T01:08:46.200Z,0
2017-03-14T01:09:47.270Z,0
2017-03-14T01:10:47.042Z,0
2017-03-14T01:11:46.675Z,0
2017-03-14T01:12:46.700Z,0
2017-03-14T01:13:46.732Z,0
2017-03-14T01:14:46.362Z,0
2017-03-14T01:15:47.181Z,0
2017-03-14T01:16:46.416Z,0
2017-03-14T01:17:46.457Z,0
2017-03-14T01:18:46.889Z,0
2017-03-14T01:19:46.510Z,0
2017-03-14T01:20:47.353Z,0
2017-03-14T01:21:46.964Z,0
2017-03-14T01:22:47.385Z,0
2017-03-14T01:23:47.425Z,0
2017-03-14T01:24:47.463Z,0
2017-03-14T01:25:46.667Z,0
2017-03-14T01:26:47.491Z,0
2017-03-14T01:27:46.328Z,0
2017-03-14T01:28:46.760Z,0
2017-03-14T01:29:46.781Z,0
2017-03-14T01:30:47.063Z,0
2017-03-14T01:31:46.839Z,0
2017-03-14T01:32:46.860Z,0
2017-03-14T01:33:46.897Z,0
2017-03-14T01:34:47.717Z,0
2017-03-14T01:35:47.994Z,0
2017-03-14T01:36:47.371Z,0
2017-03-14T01:37:47.003Z,0
2017-03-14T01:38:46.632Z,0
2017-03-14T01:39:47.461Z,0
2017-03-14T01:40:47.737Z,0
2017-03-14T01:41:47.907Z,0
2017-03-14T01:42:47.958Z,0
2017-03-14T01:43:47.168Z,0
2017-03-14T01:44:47.208Z,0
2017-03-14T01:45:47.481Z,0
2017-03-14T01:46:48.062Z,0
2017-03-14T01:47:47.672Z,0
2017-03-14T01:48:48.106Z,0
2017-03-14T01:49:47.340Z,0
2017-03-14T01:50:48.430Z,0
2017-03-14T01:51:46.994Z,0
2017-03-14T01:52:47.419Z,0
2017-03-14T01:53:47.060Z,0
2017-03-14T01:54:47.468Z,0
2017-03-14T01:55:48.160Z,0
2017-03-14T01:56:48.322Z,0
2017-03-14T01:57:47.960Z,0
2017-03-14T01:58:47.984Z,0
2017-03-14T01:59:48.024Z,0
2017-03-14T02:00:48.689Z,0
2017-03-14T02:01:48.069Z,0
2017-03-14T02:02:48.094Z,0
2017-03-14T02:03:47.327Z,0
2017-03-14T02:04:48.151Z,0
2017-03-14T02:05:48.820Z,0
2017-03-14T02:06:48.206Z,0
2017-03-14T02:07:48.230Z,0
2017-03-14T02:08:47.863Z,0
2017-03-14T02:09:47.893Z,0
2017-03-14T02:10:48.564Z,0
2017-03-14T02:11:48.733Z,0
2017-03-14T02:12:48.766Z,0
2017-03-14T02:13:48.402Z,0
2017-03-14T02:14:48.429Z,0
2017-03-14T02:15:49.096Z,0
2017-03-14T02:16:48.080Z,0
2017-03-14T02:17:48.506Z,0
2017-03-14T02:18:48.150Z,0
2017-03-14T02:19:48.567Z,0
2017-03-14T02:20:48.188Z,0
2017-03-14T02:21:49.013Z,0
2017-03-14T02:22:47.846Z,0
2017-03-14T02:23:48.671Z,0
2017-03-14T02:24:48.699Z,0
2017-03-14T02:25:49.116Z,0
2017-03-14T02:26:48.753Z,0
2017-03-14T02:27:48.775Z,0
2017-03-14T02:28:48.018Z,0
2017-03-14T02:29:48.441Z,0
2017-03-14T02:30:48.063Z,0
2017-03-14T02:31:49.544Z,0
2017-03-14T02:32:48.129Z,0
2017-03-14T02:33:48.549Z,0
2017-03-14T02:34:48.968Z,0
2017-03-14T02:35:48.615Z,0
2017-03-14T02:36:49.686Z,0
2017-03-14T02:37:49.456Z,0
2017-03-14T02:38:49.473Z,0
2017-03-14T02:39:49.110Z,0
2017-03-14T02:40:48.751Z,0
2017-03-14T02:41:49.027Z,0
2017-03-14T02:42:48.804Z,0
2017-03-14T02:43:49.617Z,0
2017-03-14T02:44:48.849Z,0
2017-03-14T02:45:49.671Z,0
2017-03-14T02:46:49.963Z,0
2017-03-14T02:47:48.933Z,0
2017-03-14T02:48:49.357Z,0
2017-03-14T02:49:49.382Z,0
2017-03-14T02:50:49.807Z,0
2017-03-14T02:51:49.707Z,0
2017-03-14T02:52:48.676Z,0
2017-03-14T02:53:49.101Z,0
2017-03-14T02:54:49.125Z,0
2017-03-14T02:55:48.755Z,0
2017-03-14T02:56:49.863Z,0
2017-03-14T02:57:49.214Z,0
2017-03-14T02:58:48.849Z,0
2017-03-14T02:59:48.864Z,0
2017-03-14T03:00:49.680Z,0
2017-03-14T03:01:49.963Z,0
2017-03-14T03:02:50.139Z,0
2017-03-14T03:03:49.766Z,0
2017-03-14T03:04:49.397Z,0
2017-03-14T03:05:49.426Z,0
2017-03-14T03:06:49.715Z,0
2017-03-14T03:07:49.879Z,0
2017-03-14T03:08:49.912Z,0
2017-03-14T03:09:50.328Z,0
2017-03-14T03:10:49.574Z,0
2017-03-14T03:11:49.846Z,0
2017-03-14T03:12:50.015Z,0
2017-03-14T03:13:50.435Z,0
2017-03-14T03:14:50.076Z,0
2017-03-14T03:15:50.096Z,0
2017-03-14T03:16:50.777Z,0
2017-03-14T03:17:49.754Z,0
2017-03-14T03:18:49.389Z,0
2017-03-14T03:19:49.812Z,0
2017-03-14T03:20:50.641Z,0
2017-03-14T03:21:50.549Z,0
2017-03-14T03:22:50.702Z,0
2017-03-14T03:23:49.944Z,0
2017-03-14T03:24:49.952Z,0
2017-03-14T03:25:50.356Z,0
2017-03-14T03:26:51.048Z,0
2017-03-14T03:27:50.846Z,0
2017-03-14T03:28:50.455Z,0
2017-03-14T03:29:50.083Z,0
2017-03-14T03:30:49.720Z,0
2017-03-14T03:31:50.397Z,0
2017-03-14T03:32:50.165Z,0
2017-03-14T03:33:50.194Z,0
2017-03-14T03:34:51.055Z,0
2017-03-14T03:35:51.044Z,0
2017-03-14T03:36:50.129Z,0
2017-03-14T03:37:51.099Z,0
2017-03-14T03:38:51.127Z,0
2017-03-14T03:39:50.759Z,0
2017-03-14T03:40:50.791Z,0
2017-03-14T03:41:50.665Z,0
2017-03-14T03:42:51.237Z,0
2017-03-14T03:43:50.070Z,0
2017-03-14T03:44:50.899Z,0
2017-03-14T03:45:50.559Z,0
2017-03-14T03:46:51.196Z,0
2017-03-14T03:47:50.964Z,0
2017-03-14T03:48:51.394Z,0
2017-03-14T03:49:51.034Z,0
2017-03-14T03:50:51.452Z,0
2017-03-14T03:51:51.338Z,0
2017-03-14T03:52:51.116Z,0
2017-03-14T03:53:50.741Z,0
2017-03-14T03:54:51.558Z,0
2017-03-14T03:55:50.794Z,0
2017-03-14T03:56:51.076Z,0
2017-03-14T03:57:50.456Z,0
2017-03-14T03:58:51.313Z,0
2017-03-14T03:59:51.302Z,0
2017-03-14T04:00:50.934Z,0
2017-03-14T04:01:51.604Z,0
2017-03-14T04:02:51.380Z,0
2017-03-14T04:03:51.805Z,0
2017-03-14T04:04:51.831Z,0
2017-03-14T04:05:51.066Z,0
2017-03-14T04:06:50.950Z,0
2017-03-14T04:07:51.516Z,0
2017-03-14T04:08:51.984Z,0
2017-03-14T04:09:51.182Z,0
2017-03-14T04:10:51.215Z,0
2017-03-14T04:11:51.875Z,0
2017-03-14T04:12:51.651Z,0
2017-03-14T04:13:51.687Z,0
2017-03-14T04:14:52.106Z,0
2017-03-14T04:15:51.734Z,0
2017-03-14T04:16:52.010Z,0
2017-03-14T04:17:51.395Z,0
2017-03-14T04:18:51.031Z,0
2017-03-14T04:19:51.065Z,0
2017-03-14T04:20:51.874Z,0
2017-03-14T04:21:52.158Z,0
2017-03-14T04:22:51.923Z,0
2017-03-14T04:23:51.572Z,0
2017-03-14T04:24:51.972Z,0
2017-03-14T04:25:51.614Z,0
2017-03-14T04:26:52.289Z,0
2017-03-14T04:27:52.465Z,0
2017-03-14T04:28:52.084Z,0
2017-03-14T04:29:51.756Z,0
2017-03-14T04:30:52.143Z,0
2017-03-14T04:31:52.160Z,0
2017-03-14T04:32:51.410Z,0
2017-03-14T04:33:52.228Z,0
2017-03-14T04:34:51.856Z,0
2017-03-14T04:35:51.489Z,0
2017-03-14T04:36:51.914Z,0
2017-03-14T04:37:52.331Z,0
2017-03-14T04:38:52.759Z,0
2017-03-14T04:39:52.392Z,0
2017-03-14T04:40:52.024Z,0
2017-03-14T04:41:52.046Z,0
2017-03-14T04:42:52.086Z,0
2017-03-14T04:43:52.103Z,0
2017-03-14T04:44:52.519Z,0
2017-03-14T04:45:52.548Z,0
2017-03-14T04:46:52.589Z,0
2017-03-14T04:47:52.651Z,0
2017-03-14T04:48:52.235Z,0
2017-03-14T04:49:53.052Z,0
2017-03-14T04:50:53.087Z,0
2017-03-14T04:51:52.716Z,0
2017-03-14T04:52:51.953Z,0
2017-03-14T04:53:52.768Z,0
2017-03-14T04:54:52.399Z,0
2017-03-14T04:55:52.819Z,0
2017-03-14T04:56:52.467Z,0
2017-03-14T04:57:53.130Z,0
2017-03-14T04:58:52.509Z,0
2017-03-14T04:59:52.929Z,0
2017-03-14T05:00:53.354Z,0
2017-03-14T05:01:53.381Z,0
2017-03-14T05:02:53.658Z,0
2017-03-14T05:03:53.038Z,0
2017-03-14T05:04:52.662Z,0
2017-03-14T05:05:52.303Z,0
2017-03-14T05:06:52.728Z,0
2017-03-14T05:07:53.407Z,0
2017-03-14T05:08:53.570Z,0
2017-03-14T05:09:53.205Z,0
2017-03-14T05:10:52.835Z,0
2017-03-14T05:11:53.264Z,0
2017-03-14T05:12:53.537Z,0
2017-03-14T05:13:53.702Z,0
2017-03-14T05:14:53.724Z,0
2017-03-14T05:15:52.966Z,0
2017-03-14T05:16:53.392Z,0
2017-03-14T05:17:53.272Z,0
2017-03-14T05:18:53.449Z,0
2017-03-14T05:19:53.474Z,0
2017-03-14T05:20:53.906Z,0
2017-03-14T05:21:52.735Z,0
2017-03-14T05:22:53.404Z,0
2017-03-14T05:23:53.598Z,0
2017-03-14T05:24:54.009Z,0
2017-03-14T05:25:53.629Z,0
2017-03-14T05:26:53.271Z,0
2017-03-14T05:27:53.547Z,0
2017-03-14T05:28:53.324Z,4
2017-03-14T05:29:53.345Z,4
2017-03-14T05:30:53.364Z,0
2017-03-14T05:31:53.801Z,4
2017-03-14T05:32:53.680Z,4
2017-03-14T05:33:53.061Z,8
2017-03-14T05:34:53.489Z,4
2017-03-14T05:35:54.310Z,8
2017-03-14T05:36:54.329Z,8
2017-03-14T05:37:54.207Z,12
2017-03-14T05:38:53.979Z,12
2017-03-14T05:39:54.008Z,16
2017-03-14T05:40:54.044Z,16
2017-03-14T05:41:54.453Z,16
2017-03-14T05:42:53.547Z,20
2017-03-14T05:43:54.120Z,24
2017-03-14T05:44:54.549Z,24
2017-03-14T05:45:53.789Z,32
2017-03-14T05:46:54.202Z,32
2017-03-14T05:47:54.882Z,36
2017-03-14T05:48:54.281Z,40
2017-03-14T05:49:54.681Z,40
2017-03-14T05:50:54.717Z,44
2017-03-14T05:51:53.950Z,48
2017-03-14T05:52:54.262Z,56
2017-03-14T05:53:54.799Z,56
2017-03-14T05:54:54.024Z,60
2017-03-14T05:55:54.841Z,64
2017-03-14T05:56:54.874Z,72
2017-03-14T05:57:54.753Z,76
2017-03-14T05:58:54.935Z,76
2017-03-14T05:59:54.552Z,84
2017-03-14T06:00:54.584Z,88
2017-03-14T06:01:55.004Z,96
2017-03-14T06:02:54.882Z,104
2017-03-14T06:03:54.666Z,108
2017-03-14T06:04:54.696Z,112
2017-03-14T06:05:55.116Z,116
2017-03-14T06:06:54.757Z,124
2017-03-14T06:07:55.426Z,128
2017-03-14T06:08:54.415Z,136
2017-03-14T06:09:54.832Z,140
2017-03-14T06:10:54.848Z,148
2017-03-14T06:11:54.921Z,156
2017-03-14T06:12:54.510Z,172
2017-03-14T06:13:54.939Z,188
2017-03-14T06:14:55.362Z,204
2017-03-14T06:15:55.393Z,224
2017-03-14T06:16:54.617Z,244
2017-03-14T06:17:55.449Z,256
2017-03-14T06:18:55.072Z,264
2017-03-14T06:19:54.690Z,268
2017-03-14T06:20:54.732Z,272
2017-03-14T06:21:55.152Z,276
2017-03-14T06:22:55.573Z,276
2017-03-14T06:23:55.609Z,276
2017-03-14T06:24:54.834Z,276
2017-03-14T06:25:55.651Z,276
2017-03-14T06:26:55.697Z,276
2017-03-14T06:27:55.320Z,276
2017-03-14T06:28:55.741Z,284
2017-03-14T06:29:55.370Z,296
2017-03-14T06:30:55.794Z,316
2017-03-14T06:31:55.432Z,336
2017-03-14T06:32:55.052Z,368
2017-03-14T06:33:56.140Z,400
2017-03-14T06:34:55.914Z,432
2017-03-14T06:35:55.542Z,468
2017-03-14T06:36:55.564Z,500
2017-03-14T06:37:55.988Z,528
2017-03-14T06:38:55.871Z,548
2017-03-14T06:39:55.650Z,560
2017-03-14T06:40:55.706Z,568
2017-03-14T06:41:56.100Z,572
2017-03-14T06:42:56.125Z,576
2017-03-14T06:43:56.413Z,576
2017-03-14T06:44:55.786Z,572
2017-03-14T06:45:56.218Z,568
2017-03-14T06:46:56.236Z,556
2017-03-14T06:47:56.260Z,552
2017-03-14T06:48:56.537Z,548
2017-03-14T06:49:56.317Z,552
2017-03-14T06:50:55.946Z,560
2017-03-14T06:51:55.975Z,560
2017-03-14T06:52:55.631Z,560
2017-03-14T06:53:56.269Z,564
2017-03-14T06:54:56.066Z,580
2017-03-14T06:55:56.087Z,596
2017-03-14T06:56:56.502Z,620
2017-03-14T06:57:56.540Z,644
2017-03-14T06:58:56.420Z,676
2017-03-14T06:59:56.593Z,712
2017-03-14T07:00:56.618Z,748
2017-03-14T07:01:56.639Z,764
2017-03-14T07:02:56.277Z,784
2017-03-14T07:03:56.943Z,780
2017-03-14T07:04:56.358Z,800
2017-03-14T07:05:56.390Z,796
2017-03-14T07:06:55.983Z,776
2017-03-14T07:07:56.407Z,768
2017-03-14T07:08:56.688Z,772
2017-03-14T07:09:56.865Z,780
2017-03-14T07:10:56.890Z,804
2017-03-14T07:11:56.914Z,844
2017-03-14T07:12:56.957Z,912
2017-03-14T07:13:57.218Z,1000
2017-03-14T07:14:56.592Z,1068
2017-03-14T07:15:57.046Z,1076
2017-03-14T07:16:57.058Z,1080
2017-03-14T07:17:57.094Z,1072
2017-03-14T07:18:57.363Z,1044
2017-03-14T07:19:56.349Z,1032
2017-03-14T07:20:56.769Z,1024
2017-03-14T07:21:56.792Z,1028
2017-03-14T07:22:56.058Z,1048
2017-03-14T07:23:56.706Z,1084
2017-03-14T07:24:57.273Z,1120
2017-03-14T07:25:56.914Z,1164
2017-03-14T07:26:57.333Z,1224
2017-03-14T07:27:57.353Z,1236
2017-03-14T07:28:56.834Z,1224
2017-03-14T07:29:57.020Z,1252
2017-03-14T07:30:57.443Z,1368
2017-03-14T07:31:57.089Z,1388
2017-03-14T07:32:57.498Z,1456
2017-03-14T07:33:57.374Z,1416
2017-03-14T07:34:57.156Z,1372
2017-03-14T07:35:57.186Z,1332
2017-03-14T07:36:57.217Z,1360
2017-03-14T07:37:57.638Z,1404
2017-03-14T07:38:57.519Z,1464
2017-03-14T07:39:57.286Z,1516
2017-03-14T07:40:57.721Z,1408
2017-03-14T07:41:57.752Z,1352
2017-03-14T07:42:57.778Z,1360
2017-03-14T07:43:57.663Z,1440
2017-03-14T07:44:57.436Z,1520
2017-03-14T07:45:57.451Z,1560
2017-03-14T07:46:57.097Z,1580
2017-03-14T07:47:57.125Z,1500
2017-03-14T07:48:56.994Z,1596
2017-03-14T07:49:57.176Z,1664
2017-03-14T07:50:57.199Z,1744
2017-03-14T07:51:57.628Z,1804
2017-03-14T07:52:57.650Z,1880
2017-03-14T07:53:57.532Z,1956
2017-03-14T07:54:57.298Z,2016
2017-03-14T07:55:58.127Z,2128
2017-03-14T07:56:58.168Z,2240
2017-03-14T07:57:58.193Z,2348
2017-03-14T07:58:58.469Z,2416
2017-03-14T07:59:57.056Z,2468
2017-03-14T08:00:57.888Z,2504
2017-03-14T08:01:57.900Z,2484
2017-03-14T08:02:57.533Z,2424
2017-03-14T08:03:58.606Z,2332
2017-03-14T08:04:57.983Z,2264
2017-03-14T08:05:58.015Z,2152
2017-03-14T08:06:58.428Z,2136
2017-03-14T08:07:58.073Z,2048
2017-03-14T08:08:58.349Z,1980
2017-03-14T08:09:58.522Z,1916
2017-03-14T08:10:58.146Z,1844
2017-03-14T08:11:58.579Z,1848
2017-03-14T08:12:58.195Z,1892
2017-03-14T08:13:58.483Z,1880
2017-03-14T08:14:58.658Z,1884
2017-03-14T08:15:58.288Z,1924
2017-03-14T08:16:57.526Z,1944
2017-03-14T08:17:57.957Z,1844
2017-03-14T08:18:59.025Z,1876
2017-03-14T08:19:58.793Z,1880
2017-03-14T08:20:58.427Z,1924
2017-03-14T08:21:58.447Z,2048
2017-03-14T08:22:58.895Z,2092
2017-03-14T08:23:58.765Z,2108
2017-03-14T08:24:58.938Z,2180
2017-03-14T08:25:58.202Z,2240
2017-03-14T08:26:58.594Z,2328
2017-03-14T08:27:58.619Z,2460
2017-03-14T08:28:58.900Z,2584
2017-03-14T08:29:58.293Z,2700
2017-03-14T08:30:59.098Z,2832
2017-03-14T08:31:58.739Z,2960
2017-03-14T08:32:59.151Z,3076
2017-03-14T08:33:59.441Z,3140
2017-03-14T08:34:58.852Z,3116
2017-03-14T08:35:59.245Z,3224
2017-03-14T08:36:59.275Z,3296
2017-03-14T08:37:59.303Z,3216
2017-03-14T08:38:59.583Z,3244
2017-03-14T08:39:59.357Z,3268
2017-03-14T08:40:58.986Z,3456
2017-03-14T08:41:58.222Z,3400
2017-03-14T08:42:59.042Z,3168
2017-03-14T08:43:58.280Z,3068
2017-03-14T08:44:59.084Z,2804
2017-03-14T08:45:59.539Z,2800
2017-03-14T08:46:59.546Z,2580
2017-03-14T08:47:59.595Z,2528
2017-03-14T08:48:59.595Z,2656
2017-03-14T08:49:59.628Z,3052
2017-03-14T08:50:59.264Z,3032
2017-03-14T08:51:59.682Z,3100
2017-03-14T08:52:59.317Z,3132
2017-03-14T08:53:58.555Z,2568
2017-03-14T08:54:59.620Z,2800
2017-03-14T08:55:59.801Z,2928
2017-03-14T08:56:59.819Z,3184
2017-03-14T08:57:59.858Z,3220
2017-03-14T08:58:59.436Z,3268
2017-03-14T08:59:59.756Z,3316
2017-03-14T09:00:59.563Z,3272
2017-03-14T09:01:59.165Z,3176
2017-03-14T09:02:59.194Z,3096
2017-03-14T09:04:00.021Z,3040
2017-03-14T09:04:59.906Z,2980
2017-03-14T09:06:00.084Z,2892
2017-03-14T09:06:59.309Z,2776
2017-03-14T09:07:59.734Z,2568
2017-03-14T09:09:00.156Z,2316
2017-03-14T09:10:00.044Z,2396
2017-03-14T09:11:00.217Z,2392
2017-03-14T09:12:00.241Z,2604
2017-03-14T09:13:00.274Z,2640
2017-03-14T09:14:00.306Z,2628
2017-03-14T09:15:00.183Z,2628
2017-03-14T09:16:00.364Z,2636
2017-03-14T09:16:59.993Z,2608
2017-03-14T09:17:59.622Z,2580
2017-03-14T09:19:00.458Z,2616
2017-03-14T09:20:00.352Z,2628
2017-03-14T09:21:00.101Z,2592
2017-03-14T09:22:00.528Z,2344
2017-03-14T09:23:00.553Z,2444
2017-03-14T09:24:00.686Z,2536
2017-03-14T09:25:00.862Z,2580
2017-03-14T09:26:00.243Z,2600
2017-03-14T09:27:00.664Z,2552
2017-03-14T09:28:00.296Z,2648
2017-03-14T09:29:00.325Z,2664
2017-03-14T09:30:01.005Z,2648
2017-03-14T09:31:00.403Z,2616
2017-03-14T09:32:00.408Z,2668
2017-03-14T09:33:00.824Z,2684
2017-03-14T09:34:00.478Z,2736
2017-03-14T09:35:01.143Z,2748
2017-03-14T09:36:00.521Z,2732
2017-03-14T09:37:00.551Z,2808
2017-03-14T09:38:00.578Z,2864
2017-03-14T09:39:01.013Z,2900
2017-03-14T09:40:01.290Z,2532
2017-03-14T09:41:01.074Z,2664
2017-03-14T09:42:00.717Z,2840
2017-03-14T09:43:00.721Z,3368
2017-03-14T09:44:00.348Z,3688
2017-03-14T09:45:01.002Z,4040
2017-03-14T09:46:00.807Z,4212
2017-03-14T09:47:01.232Z,4352
2017-03-14T09:48:00.472Z,4652
2017-03-14T09:49:01.292Z,4428
2017-03-14T09:50:01.565Z,4472
2017-03-14T09:51:01.350Z,4416
2017-03-14T09:52:01.378Z,4416
2017-03-14T09:53:01.007Z,4456
2017-03-14T09:54:01.037Z,4476
2017-03-14T09:55:01.318Z,4428
2017-03-14T09:56:00.702Z,4332
2017-03-14T09:57:00.326Z,4240
2017-03-14T09:58:01.148Z,4212
2017-03-14T09:59:01.169Z,4264
2017-03-14T10:00:01.061Z,4336
2017-03-14T10:01:01.239Z,4372
2017-03-14T10:02:01.654Z,4420
2017-03-14T10:03:01.688Z,4416
2017-03-14T10:04:01.313Z,4448
2017-03-14T10:05:01.201Z,4464
2017-03-14T10:06:01.374Z,4400
2017-03-14T10:07:00.659Z,4380
2017-03-14T10:08:00.635Z,4368
2017-03-14T10:09:01.063Z,4268
2017-03-14T10:10:01.773Z,4080
2017-03-14T10:11:01.914Z,3944
2017-03-14T10:12:01.942Z,3876
2017-03-14T10:13:01.575Z,3840
2017-03-14T10:14:01.614Z,3792
2017-03-14T10:15:02.276Z,3952
2017-03-14T10:16:02.053Z,3828
2017-03-14T10:17:02.098Z,3712
2017-03-14T10:18:01.713Z,3684
2017-03-14T10:19:01.344Z,3620
2017-03-14T10:20:02.411Z,4424
2017-03-14T10:21:01.401Z,4576
2017-03-14T10:22:01.434Z,4788
2017-03-14T10:23:01.687Z,4740
2017-03-14T10:24:02.034Z,4528
2017-03-14T10:25:02.311Z,4420
2017-03-14T10:26:01.465Z,4180
2017-03-14T10:27:01.497Z,3640
2017-03-14T10:28:01.830Z,3772
2017-03-14T10:29:01.539Z,4128
2017-03-14T10:30:02.454Z,3976
2017-03-14T10:31:02.223Z,3484
2017-03-14T10:32:02.276Z,3220
2017-03-14T10:33:01.661Z,3528
2017-03-14T10:34:01.378Z,3996
2017-03-14T10:35:02.280Z,4116
2017-03-14T10:36:02.362Z,3640
2017-03-14T10:37:02.093Z,3876
2017-03-14T10:38:01.801Z,3672
2017-03-14T10:39:01.830Z,3536
2017-03-14T10:40:02.422Z,3216
2017-03-14T10:41:02.203Z,3812
2017-03-14T10:42:02.223Z,3432
2017-03-14T10:43:01.945Z,4008
2017-03-14T10:44:01.969Z,4108
2017-03-14T10:45:02.562Z,3764
2017-03-14T10:46:02.348Z,3240
2017-03-14T10:47:02.376Z,3024
2017-03-14T10:48:02.705Z,3060
2017-03-14T10:49:02.736Z,3252
2017-03-14T10:50:03.016Z,2744
2017-03-14T10:51:02.167Z,2396
2017-03-14T10:52:02.195Z,2884
2017-03-14T10:53:02.543Z,3752
2017-03-14T10:54:02.573Z,4524
2017-03-14T10:55:02.849Z,4808
2017-03-14T10:56:02.322Z,4868
2017-03-14T10:57:02.347Z,5032
2017-03-14T10:58:02.372Z,5084
2017-03-14T10:59:02.716Z,5204
2017-03-14T11:00:03.313Z,5280
2017-03-14T11:01:02.770Z,5432
2017-03-14T11:02:02.799Z,5932
2017-03-14T11:03:03.147Z,6376
2017-03-14T11:04:02.540Z,6764
2017-03-14T11:05:03.133Z,6732
2017-03-14T11:06:02.905Z,7284
2017-03-14T11:07:02.638Z,7628
2017-03-14T11:08:02.965Z,7504
2017-03-14T11:09:02.685Z,8296
2017-03-14T11:10:03.600Z,6796
2017-03-14T11:11:03.058Z,5496
2017-03-14T11:12:02.775Z,6008
2017-03-14T11:13:03.119Z,5216
2017-03-14T11:14:03.152Z,4340
2017-03-14T11:15:03.171Z,3708
2017-03-14T11:16:03.193Z,3132
2017-03-14T11:17:03.545Z,3080
2017-03-14T11:18:02.950Z,3008
2017-03-14T11:19:03.291Z,2916
2017-03-14T11:20:03.313Z,3124
2017-03-14T11:21:03.337Z,3496
2017-03-14T11:22:03.374Z,3816
2017-03-14T11:23:03.402Z,3740
2017-03-14T11:24:03.128Z,4044
2017-03-14T11:25:03.469Z,6292
2017-03-14T11:26:03.809Z,5240
2017-03-14T11:27:03.838Z,4044
2017-03-14T11:28:03.234Z,4392
2017-03-14T11:29:03.264Z,6800
2017-03-14T11:30:03.911Z,6600
2017-03-14T11:31:03.329Z,6340
2017-03-14T11:32:03.981Z,4340
2017-03-14T11:33:04.012Z,4128
2017-03-14T11:34:03.715Z,6748
2017-03-14T11:35:03.747Z,6992
2017-03-14T11:36:04.028Z,7504
2017-03-14T11:37:03.497Z,7700
2017-03-14T11:38:03.837Z,7676
2017-03-14T11:39:04.175Z,7468
2017-03-14T11:40:03.886Z,6756
2017-03-14T11:41:04.185Z,5720
2017-03-14T11:42:04.264Z,5304
2017-03-14T11:43:04.296Z,4944
2017-03-14T11:44:04.323Z,5336
2017-03-14T11:45:04.354Z,6596
2017-03-14T11:46:04.628Z,5696
2017-03-14T11:47:04.096Z,5260
2017-03-14T11:48:03.504Z,6328
2017-03-14T11:49:03.842Z,5856
2017-03-14T11:50:03.870Z,7588
2017-03-14T11:51:04.762Z,5792
2017-03-14T11:52:04.552Z,6876
2017-03-14T11:53:04.273Z,5956
2017-03-14T11:54:04.621Z,7652
2017-03-14T11:55:04.642Z,8148
2017-03-14T11:56:04.923Z,8236
2017-03-14T11:57:04.388Z,8608
2017-03-14T11:58:04.409Z,8900
2017-03-14T11:59:04.165Z,8768
2017-03-14T12:00:04.474Z,9056
2017-03-14T12:01:05.071Z,9424
2017-03-14T12:02:04.545Z,10048
2017-03-14T12:03:04.873Z,10052
2017-03-14T12:04:04.606Z,10156
2017-03-14T12:05:04.930Z,10780
2017-03-14T12:06:04.896Z,11752
2017-03-14T12:07:04.983Z,12972
2017-03-14T12:08:05.021Z,13964
2017-03-14T12:09:05.053Z,14192
2017-03-14T12:10:05.085Z,15976
2017-03-14T12:11:04.746Z,17352
2017-03-14T12:12:05.143Z,18944
2017-03-14T12:13:04.237Z,19808
2017-03-14T12:14:04.577Z,24032
2017-03-14T12:15:04.921Z,35264
2017-03-14T12:16:05.193Z,41472
2017-03-14T12:17:05.294Z,41280
2017-03-14T12:18:05.012Z,42272
2017-03-14T12:19:05.353Z,41184
2017-03-14T12:20:05.380Z,40960
2017-03-14T12:21:05.657Z,43968
2017-03-14T12:22:05.443Z,46880
2017-03-14T12:23:05.163Z,48320
2017-03-14T12:24:04.565Z,46912
2017-03-14T12:25:05.218Z,49216
2017-03-14T12:26:05.813Z,51264
2017-03-14T12:27:05.598Z,48288
2017-03-14T12:28:05.324Z,49760
2017-03-14T12:29:05.036Z,51328
2017-03-14T12:30:05.380Z,53856
2017-03-14T12:31:05.662Z,53312
2017-03-14T12:32:05.446Z,51616
2017-03-14T12:33:05.791Z,52352
2017-03-14T12:34:05.504Z,51136
2017-03-14T12:35:05.528Z,50496
2017-03-14T12:36:06.125Z,50240
2017-03-14T12:37:05.598Z,51776
2017-03-14T12:38:05.618Z,47968
2017-03-14T12:39:05.968Z,46016
2017-03-14T12:40:06.004Z,46368
2017-03-14T12:41:05.658Z,46048
2017-03-14T12:42:05.433Z,46016
2017-03-14T12:43:05.782Z,45664
2017-03-14T12:44:05.817Z,45408
2017-03-14T12:45:05.847Z,46496
2017-03-14T12:46:07.937Z,46592
2017-03-14T12:47:05.914Z,45632
2017-03-14T12:48:06.257Z,46496
2017-03-14T12:49:05.982Z,46656
2017-03-14T12:50:06.028Z,46784
2017-03-14T12:51:05.965Z,46208
2017-03-14T12:52:06.061Z,47872
2017-03-14T12:53:06.098Z,50848
2017-03-14T12:54:05.815Z,51520
2017-03-14T12:55:06.155Z,52512
2017-03-14T12:56:06.128Z,54016
2017-03-14T12:57:06.225Z,54720
2017-03-14T12:58:05.941Z,56608
2017-03-14T12:59:06.602Z,58304
2017-03-14T13:00:06.327Z,60256
2017-03-14T13:01:06.599Z,58016
2017-03-14T13:02:06.379Z,52896
2017-03-14T13:03:06.726Z,51520
2017-03-14T13:04:06.758Z,50080
2017-03-14T13:05:06.791Z,49728
2017-03-14T13:06:06.448Z,50848
2017-03-14T13:07:06.851Z,53984
2017-03-14T13:08:06.889Z,54080
2017-03-14T13:09:06.922Z,55680
2017-03-14T13:10:06.642Z,51744
2017-03-14T13:11:07.259Z,44992
2017-03-14T13:12:06.723Z,39808
2017-03-14T13:13:07.048Z,35264
2017-03-14T13:14:06.790Z,29312
2017-03-14T13:15:06.790Z,25472
2017-03-14T13:16:07.391Z,24096
2017-03-14T13:17:06.861Z,26144
2017-03-14T13:18:06.585Z,26432
2017-03-14T13:19:06.620Z,26560
2017-03-14T13:20:07.250Z,25344
2017-03-14T13:21:06.927Z,26496
2017-03-14T13:22:07.340Z,24544
2017-03-14T13:23:07.369Z,19296
2017-03-14T13:24:07.405Z,15144
2017-03-14T13:25:07.445Z,13748
2017-03-14T13:26:07.390Z,12936
2017-03-14T13:27:07.187Z,12608
2017-03-14T13:28:06.908Z,12328
2017-03-14T13:29:07.245Z,12024
2017-03-14T13:30:07.273Z,11900
2017-03-14T13:31:07.870Z,11844
2017-03-14T13:32:07.647Z,11704
2017-03-14T13:33:07.688Z,11588
2017-03-14T13:34:07.721Z,11708
2017-03-14T13:35:07.442Z,11888
2017-03-14T13:36:08.027Z,11964
2017-03-14T13:37:07.503Z,12108
2017-03-14T13:38:07.531Z,11776
2017-03-14T13:39:07.560Z,11552
2017-03-14T13:40:07.921Z,11196
2017-03-14T13:41:08.185Z,11228
2017-03-14T13:42:07.662Z,11060
2017-03-14T13:43:07.999Z,11000
2017-03-14T13:44:08.032Z,10952
2017-03-14T13:45:07.752Z,10560
2017-03-14T13:46:08.035Z,10272
2017-03-14T13:47:07.823Z,9700
2017-03-14T13:48:07.851Z,9640
2017-03-14T13:49:08.201Z,9876
2017-03-14T13:50:08.241Z,9960
2017-03-14T13:51:08.205Z,9828
2017-03-14T13:52:07.970Z,9452
2017-03-14T13:53:08.015Z,9172